Time;durP1;ratioP1;P1;durP2;ratioP2;P2;SDS_P1;SDS_P2;PMS_P1;PMS_P2;Temp;Humidity;BMP_temperature;BMP_pressure;BME280_temperature;BME280_humidity;BME280_pressure;Samples;Min_cycle;Max_cycle;Signal;HPM_P1;HPM_P2
2023/05/17 00:02:12;;;;;;;10.98;3.70;;;;;;;7.56;100.00;102327.47;5261350;28;20041;-66
2023/05/17 00:04:44;;;;;;;12.45;4.03;;;;;;;7.54;100.00;102331.13;5264331;28;20043;-65
2023/05/17 00:07:16;;;;;;;13.55;4.03;;;;;;;7.55;100.00;102328.38;5260164;28;20079;-65
2023/05/17 00:09:47;;;;;;;11.20;3.65;;;;;;;7.52;100.00;102331.19;5268337;28;20444;-65
2023/05/17 00:12:19;;;;;;;11.25;3.70;;;;;;;7.53;100.00;102326.72;5268586;28;20115;-65
2023/05/17 00:14:50;;;;;;;14.07;3.92;;;;;;;7.49;100.00;102336.59;5268692;28;20033;-65
2023/05/17 00:17:21;;;;;;;10.57;4.40;;;;;;;7.43;100.00;102339.50;5269705;28;20406;-65
2023/05/17 00:19:53;;;;;;;14.73;4.18;;;;;;;7.42;100.00;102340.41;5261424;28;20517;-65
2023/05/17 00:22:24;;;;;;;15.18;4.07;;;;;;;7.38;100.00;102336.16;5303997;28;20034;-65
2023/05/17 00:24:56;;;;;;;14.10;4.40;;;;;;;7.40;100.00;102334.31;5259090;28;20017;-65
2023/05/17 00:27:27;;;;;;;10.45;4.28;;;;;;;7.32;100.00;102333.75;5267653;28;20082;-65
2023/05/17 00:29:58;;;;;;;11.00;4.30;;;;;;;7.33;100.00;102332.84;5257706;28;20163;-65
2023/05/17 00:32:30;;;;;;;11.73;4.55;;;;;;;7.34;100.00;102331.91;5265295;28;20035;-65
2023/05/17 00:35:01;;;;;;;16.08;5.22;;;;;;;7.31;100.00;102329.38;5264198;28;20481;-65
2023/05/17 00:37:33;;;;;;;15.20;4.50;;;;;;;7.33;100.00;102332.84;5272042;28;20036;-65
2023/05/17 00:40:05;;;;;;;14.50;4.57;;;;;;;7.30;100.00;102332.94;5264568;28;20837;-65
2023/05/17 00:42:36;;;;;;;16.92;4.93;;;;;;;7.35;100.00;102333.63;5268937;28;20034;-65
2023/05/17 00:45:08;;;;;;;24.83;5.57;;;;;;;7.29;100.00;102317.91;5274503;28;20040;-65
2023/05/17 00:47:39;;;;;;;17.90;4.68;;;;;;;7.28;100.00;102324.16;5266123;28;20063;-65
2023/05/17 00:50:11;;;;;;;12.20;4.68;;;;;;;7.28;100.00;102333.00;5267242;28;20609;-66
2023/05/17 00:52:43;;;;;;;11.55;4.50;;;;;;;7.18;100.00;102321.00;5262625;28;20552;-65
2023/05/17 00:55:14;;;;;;;18.70;4.43;;;;;;;7.17;100.00;102325.47;5268548;28;20028;-65
2023/05/17 00:57:46;;;;;;;10.18;4.63;;;;;;;7.16;100.00;102334.34;5267986;28;20028;-65
2023/05/17 01:00:17;;;;;;;15.77;5.10;;;;;;;7.13;100.00;102330.94;5260498;28;20410;-65
2023/05/17 01:02:49;;;;;;;15.07;5.65;;;;;;;7.11;100.00;102332.78;5261180;28;20029;-65
2023/05/17 01:05:21;;;;;;;11.30;4.47;;;;;;;7.11;100.00;102333.63;5264886;28;20121;-65
2023/05/17 01:07:52;;;;;;;11.63;4.65;;;;;;;7.04;100.00;102324.19;5271497;28;20028;-65
2023/05/17 01:10:47;;;;;;;13.30;4.70;;;;;;;7.15;100.00;102332.63;5276224;28;20032;-65
2023/05/17 01:13:21;;;;;;;18.35;5.05;;;;;;;7.10;100.00;102331.91;5262849;28;20031;-65
2023/05/17 01:16:17;;;;;;;12.18;4.68;;;;;;;7.07;100.00;102334.69;5260828;28;20037;-65
2023/05/17 01:19:38;;;;;;;16.55;4.97;;;;;;;7.15;100.00;102329.97;5265295;28;20379;-65
2023/05/17 01:22:28;;;;;;;16.35;4.68;;;;;;;7.06;100.00;102325.88;5263763;28;20458;-65
2023/05/17 01:25:24;;;;;;;12.82;4.45;;;;;;;7.04;100.00;102318.88;5264543;28;20052;-65
2023/05/17 01:27:59;;;;;;;12.25;4.55;;;;;;;6.98;100.00;102321.75;5259369;28;20024;-65
2023/05/17 01:30:32;;;;;;;15.27;4.60;;;;;;;6.97;100.00;102330.66;5261708;28;20017;-66
2023/05/17 01:33:04;;;;;;;15.15;4.80;;;;;;;6.93;100.00;102337.84;5262637;28;20028;-66
2023/05/17 01:35:36;;;;;;;12.02;4.40;;;;;;;6.90;100.00;102340.63;5265924;28;20036;-65
2023/05/17 01:38:07;;;;;;;10.95;4.47;;;;;;;7.03;100.00;102333.06;5260343;28;20396;-65
2023/05/17 01:40:48;;;;;;;12.68;4.55;;;;;;;6.92;100.00;102333.47;5264400;28;20054;-65
2023/05/17 01:43:40;;;;;;;13.32;4.68;;;;;;;6.89;100.00;102332.72;5267819;28;20063;-65
2023/05/17 01:46:20;;;;;;;15.40;5.20;;;;;;;6.85;100.00;102326.66;5264799;28;20096;-65
2023/05/17 01:49:29;;;;;;;18.67;4.68;;;;;;;6.89;100.00;102335.38;5269747;28;20062;-65
2023/05/17 01:52:50;;;;;;;10.95;4.82;;;;;;;6.86;100.00;102331.03;5262553;28;20081;-65
2023/05/17 01:55:21;;;;;;;14.90;5.30;;;;;;;6.85;100.00;102329.31;5223365;28;20072;-65
2023/05/17 01:57:54;;;;;;;12.43;5.57;;;;;;;6.87;100.00;102336.28;5255279;28;20115;-66
2023/05/17 02:00:28;;;;;;;14.27;5.05;;;;;;;6.85;100.00;102329.31;5264580;28;20028;-65
2023/05/17 02:02:59;;;;;;;15.53;5.77;;;;;;;6.85;100.00;102326.66;5262357;28;20074;-66
2023/05/17 02:05:31;;;;;;;19.10;6.03;;;;;;;6.84;100.00;102324.94;5262724;28;20106;-65
2023/05/17 02:08:02;;;;;;;13.77;5.30;;;;;;;6.83;100.00;102337.34;5266732;28;20382;-65
2023/05/17 02:10:34;;;;;;;16.95;5.55;;;;;;;6.91;100.00;102338.84;5263171;28;20036;-65
2023/05/17 02:13:05;;;;;;;17.55;6.43;;;;;;;6.86;100.00;102341.66;5263988;28;20534;-65
2023/05/17 02:15:37;;;;;;;13.60;5.53;;;;;;;6.82;100.00;102343.53;5261095;28;20029;-65
2023/05/17 02:18:10;;;;;;;15.93;5.40;;;;;;;6.90;100.00;102337.09;5260861;28;20032;-65
2023/05/17 02:20:41;;;;;;;17.02;5.25;;;;;;;6.89;100.00;102340.69;5262334;28;20037;-66
2023/05/17 02:23:13;;;;;;;17.27;6.18;;;;;;;6.83;100.00;102347.09;5262240;28;20546;-65
2023/05/17 02:25:44;;;;;;;20.75;6.63;;;;;;;6.89;100.00;102335.38;5260818;28;20013;-65
2023/05/17 02:28:15;;;;;;;15.27;5.80;;;;;;;6.78;100.00;102328.66;5261501;28;20386;-65
2023/05/17 02:30:47;;;;;;;13.25;5.53;;;;;;;6.85;100.00;102334.63;5273037;28;20379;-67
2023/05/17 02:33:18;;;;;;;19.88;5.60;;;;;;;6.91;100.00;102329.09;5265471;28;20624;-65
2023/05/17 02:35:50;;;;;;;19.05;6.53;;;;;;;6.91;100.00;102333.53;5264063;28;20078;-65
2023/05/17 02:38:21;;;;;;;18.95;5.90;;;;;;;6.81;100.00;102333.03;5267768;28;20017;-65
2023/05/17 02:40:53;;;;;;;14.88;6.00;;;;;;;6.82;100.00;102338.25;5271371;28;20035;-65
2023/05/17 02:43:24;;;;;;;17.52;6.05;;;;;;;6.80;100.00;102347.19;5268650;28;20034;-65
2023/05/17 02:45:55;;;;;;;13.52;5.65;;;;;;;6.95;100.00;102348.41;5268118;28;20032;-65
2023/05/17 02:48:27;;;;;;;16.77;6.03;;;;;;;6.84;100.00;102352.31;5276759;28;20104;-65
2023/05/17 02:50:58;;;;;;;16.23;5.82;;;;;;;6.85;100.00;102358.50;5281346;28;20710;-65
2023/05/17 02:53:29;;;;;;;16.00;5.93;;;;;;;6.87;100.00;102356.66;5270694;28;20158;-65
2023/05/17 02:56:01;;;;;;;13.35;6.38;;;;;;;6.88;100.00;102355.72;5266144;28;20379;-65
2023/05/17 02:58:32;;;;;;;20.73;6.20;;;;;;;6.90;100.00;102351.22;5268713;28;20031;-65
2023/05/17 03:01:04;;;;;;;16.95;6.88;;;;;;;7.01;100.00;102362.31;5265012;28;21454;-66
2023/05/17 03:03:35;;;;;;;18.13;7.28;;;;;;;6.97;100.00;102365.16;5267502;28;20028;-66
2023/05/17 03:06:07;;;;;;;20.65;7.38;;;;;;;7.10;100.00;102365.56;5264519;28;20379;-66
2023/05/17 03:08:39;;;;;;;20.13;6.75;;;;;;;7.08;100.00;102370.94;5265171;28;20505;-66
2023/05/17 03:11:10;;;;;;;18.77;7.40;;;;;;;7.03;100.00;102376.38;5265622;28;20063;-66
2023/05/17 03:13:41;;;;;;;17.02;7.53;;;;;;;7.04;100.00;102367.53;5267748;28;20504;-66
2023/05/17 03:16:13;;;;;;;18.67;7.97;;;;;;;7.05;100.00;102371.88;5264132;28;20056;-66
2023/05/17 03:18:44;;;;;;;15.25;6.10;;;;;;;7.09;100.00;102372.66;5264345;28;20027;-65
2023/05/17 03:21:16;;;;;;;23.70;6.97;;;;;;;7.17;100.00;102381.22;5262856;28;20029;-66
2023/05/17 03:23:47;;;;;;;17.30;7.03;;;;;;;7.16;100.00;102386.56;5265493;28;20036;-66
2023/05/17 03:26:18;;;;;;;25.90;7.63;;;;;;;7.17;100.00;102386.50;5263853;28;20390;-66
2023/05/17 03:28:50;;;;;;;17.77;6.63;;;;;;;7.17;100.00;102381.22;5269789;28;20029;-66
2023/05/17 03:31:21;;;;;;;17.27;6.45;;;;;;;7.17;100.00;102391.81;5264959;28;20390;-66
2023/05/17 03:33:53;;;;;;;16.35;7.30;;;;;;;7.24;100.00;102395.09;5261018;28;20075;-65
2023/05/17 03:36:24;;;;;;;20.67;6.75;;;;;;;7.23;100.00;102393.38;5256327;28;20506;-66
2023/05/17 03:38:56;;;;;;;14.60;7.22;;;;;;;7.24;100.00;102390.66;5267533;28;20383;-66
2023/05/17 03:41:27;;;;;;;19.05;7.03;;;;;;;7.29;100.00;102398.47;5260974;28;20029;-66
2023/05/17 03:43:59;;;;;;;14.85;6.75;;;;;;;7.32;100.00;102395.66;5268193;28;20111;-66
2023/05/17 03:46:30;;;;;;;21.60;8.30;;;;;;;7.36;100.00;102397.28;5269728;28;20059;-67
2023/05/17 03:49:01;;;;;;;16.88;6.82;;;;;;;7.34;100.00;102391.16;5259966;28;20056;-66
2023/05/17 03:51:33;;;;;;;16.52;6.68;;;;;;;7.42;100.00;102393.53;5267474;28;20166;-65
2023/05/17 03:54:05;;;;;;;19.55;7.75;;;;;;;7.43;100.00;102400.59;5264858;28;20024;-66
2023/05/17 03:56:36;;;;;;;16.90;7.47;;;;;;;7.44;100.00;102404.94;5268856;28;20569;-65
2023/05/17 03:59:08;;;;;;;18.55;6.85;;;;;;;7.44;100.00;102402.28;5272728;28;20037;-65
2023/05/17 04:01:40;;;;;;;17.17;7.70;;;;;;;7.49;100.00;102402.13;5283956;28;20029;-67
2023/05/17 04:04:12;;;;;;;19.08;7.18;;;;;;;7.44;100.00;102408.50;5265876;28;20458;-65
2023/05/17 04:06:43;;;;;;;21.98;7.80;;;;;;;7.46;100.00;102405.78;5271004;28;20136;-66
2023/05/17 04:09:14;;;;;;;17.63;7.80;;;;;;;7.46;100.00;102419.06;5285456;28;20032;-66
2023/05/17 04:11:46;;;;;;;18.75;7.78;;;;;;;7.47;100.00;102411.00;5271277;28;20691;-65
2023/05/17 04:14:18;;;;;;;18.30;7.03;;;;;;;7.45;100.00;102409.34;5269912;28;20017;-65
2023/05/17 04:16:49;;;;;;;22.65;8.13;;;;;;;7.57;100.00;102414.19;5265621;28;20102;-66
2023/05/17 04:19:21;;;;;;;19.90;7.95;;;;;;;7.47;100.00;102412.81;5266452;28;20028;-65
2023/05/17 04:21:53;;;;;;;18.23;7.82;;;;;;;7.47;100.00;102416.31;5264188;28;20420;-66
2023/05/17 04:24:25;;;;;;;20.05;7.95;;;;;;;7.45;100.00;102417.31;5265301;28;20035;-65
2023/05/17 04:26:56;;;;;;;21.45;8.13;;;;;;;7.44;100.00;102418.22;5270711;28;20484;-65
2023/05/17 04:29:27;;;;;;;18.40;7.95;;;;;;;7.44;100.00;102418.22;5273754;28;20075;-65
2023/05/17 04:31:59;;;;;;;23.73;8.38;;;;;;;7.44;100.00;102423.53;5266372;28;20435;-65
2023/05/17 04:34:30;;;;;;;19.67;9.07;;;;;;;7.43;100.00;102430.66;5270024;28;20614;-65
2023/05/17 04:37:02;;;;;;;17.30;8.30;;;;;;;7.43;100.00;102437.75;5267019;28;20052;-65
2023/05/17 04:39:34;;;;;;;22.88;9.18;;;;;;;7.44;100.00;102442.13;5264480;28;20031;-65
2023/05/17 04:42:05;;;;;;;19.48;8.88;;;;;;;7.45;100.00;102438.56;5263870;28;20071;-65
2023/05/17 04:44:37;;;;;;;17.92;8.70;;;;;;;7.47;100.00;102442.03;5262870;28;20025;-65
2023/05/17 04:47:08;;;;;;;22.50;8.93;;;;;;;7.47;100.00;102447.34;5263597;28;20058;-65
2023/05/17 04:49:40;;;;;;;22.60;9.35;;;;;;;7.49;100.00;102450.81;5268001;28;20013;-65
2023/05/17 04:52:11;;;;;;;19.60;9.00;;;;;;;7.52;100.00;102456.00;5261268;28;20436;-65
2023/05/17 04:54:43;;;;;;;20.63;8.35;;;;;;;7.52;100.00;102450.69;5265228;28;20024;-66
2023/05/17 04:57:14;;;;;;;22.85;9.18;;;;;;;7.56;100.00;102452.31;5258984;28;20028;-66
2023/05/17 04:59:45;;;;;;;19.67;8.77;;;;;;;7.59;100.00;102464.59;5257720;28;20655;-65
2023/05/17 05:02:17;;;;;;;20.27;9.25;;;;;;;7.59;100.00;102461.94;5259396;28;20383;-65
2023/05/17 05:04:48;;;;;;;20.30;9.82;;;;;;;7.62;100.00;102460.03;5258436;28;20035;-65
2023/05/17 05:07:20;;;;;;;20.80;9.32;;;;;;;7.64;100.00;102463.50;5266060;28;20498;-65
2023/05/17 05:09:51;;;;;;;21.00;9.18;;;;;;;7.69;100.00;102470.41;5273516;28;20519;-65
2023/05/17 05:12:24;;;;;;;19.75;9.50;;;;;;;7.72;100.00;102475.63;5271565;28;20032;-65
2023/05/17 05:14:55;;;;;;;23.88;9.70;;;;;;;7.77;100.00;102476.31;5262915;28;20032;-65
2023/05/17 05:17:28;;;;;;;19.67;9.23;;;;;;;7.81;100.00;102472.63;5257906;28;20063;-65
2023/05/17 05:19:59;;;;;;;24.20;10.15;;;;;;;7.88;100.00;102475.91;5259930;28;20027;-65
2023/05/17 05:22:30;;;;;;;23.67;9.27;;;;;;;7.94;100.00;102488.94;5265905;28;20491;-66
2023/05/17 05:25:02;;;;;;;26.08;9.93;;;;;;;7.94;100.00;102486.28;5281226;28;20058;-66
2023/05/17 05:27:34;;;;;;;22.77;9.13;;;;;;;7.96;100.00;102485.31;5269763;28;20033;-65
2023/05/17 05:30:06;;;;;;;25.25;9.27;;;;;;;8.01;100.00;102488.63;5267873;28;20167;-65
2023/05/17 05:32:37;;;;;;;20.05;9.18;;;;;;;8.04;100.00;102493.84;5264872;28;20028;-66
2023/05/17 05:35:09;;;;;;;20.63;8.88;;;;;;;8.13;100.00;102500.59;5259314;28;20025;-66
2023/05/17 05:37:44;;;;;;;25.15;8.88;;;;;;;8.18;100.00;102500.41;5262769;28;20027;-66
2023/05/17 05:40:15;;;;;;;25.73;8.98;;;;;;;8.31;100.00;102501.66;5263363;28;20041;-67
2023/05/17 05:42:47;;;;;;;23.48;8.50;;;;;;;8.40;100.00;102495.97;5256825;28;20024;-65
2023/05/17 05:45:18;;;;;;;23.75;9.40;;;;;;;8.44;100.00;102507.38;5258729;28;20043;-65
2023/05/17 05:47:50;;;;;;;25.70;8.45;;;;;;;8.53;100.00;102509.63;5264604;28;20032;-65
2023/05/17 05:50:21;;;;;;;22.42;8.80;;;;;;;8.59;100.00;102512.06;5257137;28;21711;-65
2023/05/17 05:52:53;;;;;;;21.95;8.85;;;;;;;8.70;100.00;102511.59;5263670;28;20032;-65
2023/05/17 05:55:24;;;;;;;23.05;8.30;;;;;;;8.79;100.00;102521.00;5261286;28;20487;-65
2023/05/17 05:57:56;;;;;;;19.27;7.85;;;;;;;8.89;100.00;102513.50;5268653;28;20021;-65
2023/05/17 06:00:27;;;;;;;24.08;8.27;;;;;;;8.96;100.00;102517.66;5263392;28;20040;-66
2023/05/17 06:02:58;;;;;;;16.63;7.40;;;;;;;8.97;100.00;102527.34;5260045;28;20025;-66
2023/05/17 06:05:30;;;;;;;21.88;6.35;;;;;;;9.01;100.00;102523.63;5263936;28;20577;-65
2023/05/17 06:08:01;;;;;;;22.95;6.90;;;;;;;9.08;100.00;102533.06;5269351;28;20483;-65
2023/05/17 06:10:32;;;;;;;16.70;5.63;;;;;;;9.12;100.00;102525.81;5269746;28;20028;-66
2023/05/17 06:13:04;;;;;;;17.75;5.97;;;;;;;9.15;100.00;102529.22;5263542;28;20407;-65
2023/05/17 06:15:35;;;;;;;15.63;6.05;;;;;;;9.28;100.00;102534.00;5277430;28;20024;-65
2023/05/17 06:18:07;;;;;;;17.65;5.60;;;;;;;9.27;100.00;102534.94;5266292;28;20028;-66
2023/05/17 06:20:38;;;;;;;17.60;5.88;;;;;;;9.28;100.00;102534.88;5263696;28;20462;-65
2023/05/17 06:23:09;;;;;;;20.65;5.63;;;;;;;9.39;100.00;102537.91;5268391;28;20036;-65
2023/05/17 06:25:41;;;;;;;15.07;5.10;;;;;;;9.41;100.00;102541.41;5270121;28;20422;-66
2023/05/17 06:28:12;;;;;;;17.73;5.22;;;;;;;9.50;100.00;102549.91;5264430;28;20021;-65
2023/05/17 06:30:44;;;;;;;18.27;4.55;;;;;;;9.53;100.00;102544.44;5259966;28;20060;-65
2023/05/17 06:33:15;;;;;;;15.98;4.65;;;;;;;9.64;100.00;102542.16;5264353;28;20556;-65
2023/05/17 06:35:47;;;;;;;14.65;4.28;;;;;;;9.66;100.00;102542.94;5274680;28;20139;-68
2023/05/17 06:38:18;;;;;;;19.15;4.85;;;;;;;9.72;100.00;102537.34;5277667;28;20033;-65
2023/05/17 06:40:54;;;;;;;15.52;4.03;;;;;;;9.77;100.00;102540.66;5264826;28;20039;-65
2023/05/17 06:43:25;;;;;;;12.65;4.00;;;;;;;9.82;100.00;102540.47;5276959;28;20016;-65
2023/05/17 06:45:57;;;;;;;17.92;3.90;;;;;;;9.91;100.00;102542.69;5273001;28;20037;-65
2023/05/17 06:48:28;;;;;;;17.45;3.75;;;;;;;9.92;100.00;102536.44;5260977;28;20421;-65
2023/05/17 06:50:59;;;;;;;17.08;3.40;;;;;;;9.92;100.00;102540.91;5259267;28;20067;-65
2023/05/17 06:53:31;;;;;;;14.20;3.13;;;;;;;9.85;100.00;102526.97;5266394;28;20106;-65
2023/05/17 06:56:02;;;;;;;16.48;4.15;;;;;;;9.95;100.00;102544.28;5272513;28;20058;-65
2023/05/17 06:58:34;;;;;;;11.73;2.63;;;;;;;9.92;100.00;102539.09;5274814;28;20103;-65
2023/05/17 07:01:05;;;;;;;12.90;3.10;;;;;;;9.95;100.00;102548.75;5279596;28;20028;-65
2023/05/17 07:03:37;;;;;;;18.05;3.20;;;;;;;10.05;100.00;102541.16;5274806;28;20082;-66
2023/05/17 07:06:08;;;;;;;11.98;2.70;;;;;;;10.13;100.00;102541.69;5274303;28;20052;-65
2023/05/17 07:08:40;;;;;;;15.85;3.45;;;;;;;10.19;100.00;102544.06;5275982;28;20029;-65
2023/05/17 07:11:11;;;;;;;12.45;2.65;;;;;;;10.30;100.00;102549.78;5271995;28;20148;-65
2023/05/17 07:13:42;;;;;;;16.65;2.95;;;;;;;10.42;100.00;102550.13;5270275;28;20471;-65
2023/05/17 07:16:14;;;;;;;12.75;2.60;;;;;;;10.46;100.00;102547.22;5282492;28;20023;-65
2023/05/17 07:18:45;;;;;;;14.23;2.25;;;;;;;10.53;100.00;102547.81;5269877;28;20035;-65
2023/05/17 07:21:17;;;;;;;14.35;2.58;;;;;;;10.64;100.00;102552.59;5267098;28;20767;-65
2023/05/17 07:23:49;;;;;;;12.20;2.13;;;;;;;10.68;100.00;102548.84;5267035;28;20036;-64
2023/05/17 07:26:21;;;;;;;12.02;2.38;;;;;;;10.75;100.00;102559.13;5274033;28;20020;-65
2023/05/17 07:28:52;;;;;;;13.40;2.60;;;;;;;10.88;100.00;102555.88;5301718;28;20138;-65
2023/05/17 07:31:24;;;;;;;10.88;2.50;;;;;;;10.98;100.00;102560.66;5258490;28;20025;-65
2023/05/17 07:33:55;;;;;;;13.50;2.63;;;;;;;11.04;100.00;102561.28;5259745;28;20025;-65
2023/05/17 07:36:29;;;;;;;11.07;2.78;;;;;;;11.09;100.00;102564.59;5264929;28;20038;-65
2023/05/17 07:39:00;;;;;;;14.07;2.88;;;;;;;11.07;100.00;102564.69;5256341;28;20040;-65
2023/05/17 07:41:33;;;;;;;15.52;2.45;;;;;;;11.09;100.00;102569.94;5256900;28;20025;-66
2023/05/17 07:44:04;;;;;;;13.32;2.30;;;;;;;11.21;100.00;102563.97;5266572;28;20028;-67
2023/05/17 07:46:36;;;;;;;14.30;2.92;;;;;;;11.19;100.00;102566.72;5259119;28;20398;-64
2023/05/17 07:49:07;;;;;;;12.50;3.10;;;;;;;11.28;100.00;102569.88;5269693;28;20455;-65
2023/05/17 07:51:39;;;;;;;10.90;2.63;;;;;;;11.30;100.00;102568.84;5276111;28;20399;-65
2023/05/17 07:54:22;;;;;;;12.68;2.35;;;;;;;11.36;100.00;102570.31;5269225;28;20020;-66
2023/05/17 07:56:54;;;;;;;10.95;2.45;;;;;;;11.44;100.00;102575.28;5274951;28;20016;-65
2023/05/17 07:59:25;;;;;;;10.10;2.05;;;;;;;11.54;100.00;102584.53;5275874;28;20103;-65
2023/05/17 08:01:57;;;;;;;9.63;2.10;;;;;;;11.66;100.00;102583.88;5270117;28;20028;-65
2023/05/17 08:04:28;;;;;;;11.35;2.13;;;;;;;11.77;100.00;102581.50;5272498;28;20085;-65
2023/05/17 08:07:00;;;;;;;10.55;2.03;;;;;;;11.83;100.00;102569.63;5267911;28;20105;-65
2023/05/17 08:09:31;;;;;;;9.68;1.80;;;;;;;11.94;100.00;102579.75;5256651;28;20482;-65
2023/05/17 08:12:03;;;;;;;10.40;2.40;;;;;;;12.07;100.00;102579.94;5256780;28;20067;-65
2023/05/17 08:14:34;;;;;;;9.80;2.40;;;;;;;12.17;100.00;102575.81;5265657;28;20474;-65
2023/05/17 08:17:05;;;;;;;7.72;1.90;;;;;;;12.28;100.00;102578.75;5268465;28;20495;-65
2023/05/17 08:19:37;;;;;;;9.05;2.28;;;;;;;12.45;100.00;102582.31;5261568;28;20483;-65
2023/05/17 08:22:09;;;;;;;11.65;2.08;;;;;;;12.50;100.00;102581.09;5264835;28;20638;-65
2023/05/17 08:24:40;;;;;;;10.60;2.53;;;;;;;12.59;100.00;102581.50;5274519;28;20032;-65
2023/05/17 08:27:12;;;;;;;9.95;2.55;;;;;;;12.70;100.00;102587.13;5264825;28;20078;-65
2023/05/17 08:29:43;;;;;;;9.68;2.28;;;;;;;12.71;100.00;102595.06;5261082;28;20048;-66
2023/05/17 08:32:14;;;;;;;10.73;2.20;;;;;;;12.70;100.00;102592.47;5263497;28;20028;-65
2023/05/17 08:34:46;;;;;;;10.85;2.92;;;;;;;12.70;100.00;102593.31;5259349;28;20503;-65
2023/05/17 08:37:18;;;;;;;8.60;2.05;;;;;;;12.76;100.00;102592.13;5266170;28;20163;-65
2023/05/17 08:39:50;;;;;;;7.68;1.80;;;;;;;12.79;100.00;102586.59;5269323;28;20035;-65
2023/05/17 08:42:25;;;;;;;10.27;1.70;;;;;;;12.77;100.00;102590.28;5271049;28;20066;-65
2023/05/17 08:44:56;;;;;;;12.02;1.90;;;;;;;12.82;100.00;102585.53;5260696;28;20028;-65
2023/05/17 08:47:30;;;;;;;9.55;1.85;;;;;;;12.91;100.00;102577.81;5263121;28;20394;-65
2023/05/17 08:50:04;;;;;;;;;;;;;;;13.06;100.00;102584.09;5267249;28;20397;-65
2023/05/17 08:52:36;;;;;;;11.02;2.05;;;;;;;12.97;100.00;102591.81;5268642;28;19914;-65
2023/05/17 08:55:08;;;;;;;11.07;1.90;;;;;;;13.09;100.00;102578.53;5262735;28;20025;-65
2023/05/17 08:57:40;;;;;;;13.65;2.97;;;;;;;13.07;100.00;102590.31;5272510;28;20036;-66
2023/05/17 09:00:15;;;;;;;9.80;2.80;;;;;;;13.28;100.00;102589.03;5272950;28;20102;-65
2023/05/17 09:02:47;;;;;;;10.18;2.13;;;;;;;13.13;100.00;102593.53;5265975;28;20055;-65
2023/05/17 09:05:19;;;;;;;7.30;1.20;;;;;;;13.13;100.00;102593.53;5272116;28;20063;-66
2023/05/17 09:07:51;;;;;;;8.10;1.65;;;;;;;13.16;100.00;102587.09;5283529;28;20055;-65
2023/05/17 09:10:23;;;;;;;9.88;1.88;;;;;;;13.13;100.00;102593.53;5267689;28;20103;-65
2023/05/17 09:12:55;;;;;;;7.50;1.23;;;;;;;13.26;100.00;102590.09;5263971;28;20090;-65
2023/05/17 09:15:27;;;;;;;8.65;1.65;;;;;;;13.30;100.00;102595.19;5271621;28;20054;-65
2023/05/17 09:17:59;;;;;;;9.50;2.17;;;;;;;13.27;100.00;102589.13;5269782;28;20028;-65
2023/05/17 09:20:38;;;;;;;9.15;1.98;;;;;;;13.23;100.00;102593.81;5284220;28;20026;-65
2023/05/17 09:23:12;;;;;;;10.88;1.98;;;;;;;13.21;100.00;102589.50;5275827;28;20079;-66
2023/05/17 09:25:49;;;;;;;15.10;2.15;;;;;;;13.23;100.00;102582.22;5269961;28;20013;-65
2023/05/17 09:28:20;;;;;;;9.82;2.28;;;;;;;13.55;100.00;102577.63;5267592;28;20145;-65
2023/05/17 09:30:52;;;;;;;9.88;2.80;;;;;;;13.77;100.00;102584.34;5273840;28;20046;-65
2023/05/17 09:33:23;;;;;;;9.23;1.75;;;;;;;13.71;100.00;102589.16;5273739;28;20491;-65
2023/05/17 09:35:55;;;;;;;10.60;1.85;;;;;;;13.65;100.00;102588.66;5272551;28;20020;-65
2023/05/17 09:38:26;;;;;;;7.68;1.90;;;;;;;13.61;100.00;102590.66;5268216;28;20041;-65
2023/05/17 09:41:01;;;;;;;12.63;1.77;;;;;;;13.57;100.00;102590.94;5270848;28;20036;-65
2023/05/17 09:43:32;;;;;;;8.05;1.92;;;;;;;13.52;100.00;102580.50;5282862;28;20444;-65
2023/05/17 09:46:04;;;;;;;7.00;1.70;;;;;;;13.59;100.00;102576.47;5274086;28;20090;-66
2023/05/17 09:48:37;;;;;;;7.97;1.75;;;;;;;13.77;100.00;102590.59;5279034;28;20039;-66
2023/05/17 09:51:08;;;;;;;10.80;2.83;;;;;;;13.71;100.00;102580.22;5273791;28;20025;-65
2023/05/17 09:53:41;;;;;;;9.38;2.05;;;;;;;13.59;100.00;102589.03;5288048;28;20289;-66
2023/05/17 09:56:13;;;;;;;9.63;1.98;;;;;;;13.61;100.00;102595.16;5271135;28;20111;-65
2023/05/17 09:58:45;;;;;;;11.55;2.35;;;;;;;13.70;100.00;102590.09;5272168;28;20471;-65
2023/05/17 10:01:16;;;;;;;7.50;1.80;;;;;;;13.64;100.00;102587.78;5273006;28;20108;-65
2023/05/17 10:03:50;;;;;;;8.73;1.90;;;;;;;13.53;100.00;102584.91;5269882;28;20029;-67
2023/05/17 10:06:22;;;;;;;9.50;2.40;;;;;;;13.63;100.00;102590.56;5273879;28;20048;-65
2023/05/17 10:08:58;;;;;;;7.20;1.67;;;;;;;13.81;100.00;102588.59;5271551;28;20050;-65
2023/05/17 10:11:33;;;;;;;7.03;1.50;;;;;;;14.07;100.00;102581.56;5275408;28;20097;-65
2023/05/17 10:14:10;;;;;;;9.73;1.58;;;;;;;14.05;100.00;102587.00;5269551;28;20064;-65
2023/05/17 10:16:42;;;;;;;8.50;1.80;;;;;;;14.16;100.00;102583.66;5274993;28;20040;-65
2023/05/17 10:19:14;;;;;;;10.43;1.83;;;;;;;14.20;100.00;102587.00;5278123;28;20025;-66
2023/05/17 10:21:50;;;;;;;8.48;1.52;;;;;;;14.29;100.00;102586.44;5269832;28;20071;-65
2023/05/17 10:24:22;;;;;;;9.18;1.73;;;;;;;14.41;100.00;102592.81;5277887;28;20030;-66
2023/05/17 10:26:53;;;;;;;10.07;1.92;;;;;;;14.41;100.00;102590.13;5267114;28;20024;-65
2023/05/17 10:29:25;;;;;;;6.75;1.60;;;;;;;14.50;100.00;102584.16;5268677;28;20048;-65
2023/05/17 10:31:57;;;;;;;9.23;2.22;;;;;;;14.57;100.00;102593.56;5271692;28;20398;-65
2023/05/17 10:34:30;;;;;;;10.80;1.80;;;;;;;14.60;100.00;102597.88;5263626;28;20017;-65
2023/05/17 10:37:03;;;;;;;9.55;1.73;;;;;;;14.53;100.00;102589.31;5268325;28;20033;-66
2023/05/17 10:39:37;;;;;;;8.27;2.15;;;;;;;14.43;100.00;102588.22;5265198;28;20037;-65
2023/05/17 10:42:10;;;;;;;10.43;2.22;;;;;;;14.37;100.00;102585.94;5270128;28;20031;-67
2023/05/17 10:44:41;;;;;;;10.83;2.20;;;;;;;14.37;100.00;102581.41;5257592;28;20352;-66
2023/05/17 10:47:14;;;;;;;6.90;1.70;;;;;;;14.30;100.00;102585.44;5258524;28;20106;-66
2023/05/17 10:49:46;;;;;;;7.13;1.58;;;;;;;14.42;100.00;102573.94;5260558;28;20073;-66
2023/05/17 10:52:22;;;;;;;5.30;1.60;;;;;;;14.44;100.00;102572.00;5260305;28;20127;-66
2023/05/17 10:54:53;;;;;;;9.85;1.58;;;;;;;14.54;100.00;102574.09;5276204;28;20021;-66
2023/05/17 10:57:33;;;;;;;7.32;1.60;;;;;;;14.75;100.00;102569.16;5271537;28;20025;-65
2023/05/17 11:00:09;;;;;;;8.85;1.85;;;;;;;14.82;100.00;102559.69;5269473;28;20029;-66
2023/05/17 11:02:42;;;;;;;6.25;1.10;;;;;;;14.76;100.00;102568.16;5266055;28;20040;-65
2023/05/17 11:05:24;;;;;;;8.15;1.55;;;;;;;14.76;100.00;102557.44;5263792;28;20041;-66
2023/05/17 11:08:13;;;;;;;6.38;1.15;;;;;;;14.83;100.00;102556.06;5261037;28;20036;-66
2023/05/17 11:11:10;;;;;;;7.72;1.33;;;;;;;14.89;100.00;102563.69;5273683;28;20162;-66
2023/05/17 11:13:53;;;;;;;4.35;1.13;;;;;;;14.84;100.00;102557.75;5270364;28;20029;-66
2023/05/17 11:16:35;;;;;;;7.28;1.60;;;;;;;14.84;100.00;102564.03;5272717;28;20489;-66
2023/05/17 11:19:10;;;;;;;7.93;1.30;;;;;;;14.84;90.51;102568.50;5262587;28;20078;-66
2023/05/17 11:21:46;;;;;;;6.05;1.60;;;;;;;14.92;95.01;102563.50;5282514;28;20059;-66
2023/05/17 11:24:27;;;;;;;5.60;1.40;;;;;;;14.83;96.45;102564.97;5289126;28;20028;-65
2023/05/17 11:27:01;;;;;;;6.03;1.50;;;;;;;14.81;99.35;102558.00;5256297;28;20170;-66
2023/05/17 11:29:33;;;;;;;9.53;1.67;;;;;;;14.86;97.77;102558.53;5275025;28;20116;-66
2023/05/17 11:32:07;;;;;;;8.75;1.60;;;;;;;15.05;100.00;102556.34;5263416;28;20024;-65
2023/05/17 11:34:39;;;;;;;7.20;1.80;;;;;;;15.10;99.40;102558.69;5258940;28;20021;-66
2023/05/17 11:37:10;;;;;;;9.02;1.52;;;;;;;15.08;96.26;102560.63;5259782;28;20124;-66
2023/05/17 11:40:01;;;;;;;8.63;1.92;;;;;;;14.87;94.49;102538.75;5262230;28;20085;-66
2023/05/17 11:42:34;;;;;;;7.43;1.60;;;;;;;14.97;96.36;102558.66;5261896;28;20118;-66
2023/05/17 11:45:06;;;;;;;5.57;1.52;;;;;;;15.00;99.49;102555.78;5264697;28;20024;-65